sensor_id;sensor_type;location;lat;lon;timestamp;P1;durP1;ratioP1;P2;durP2;ratioP2
13779;SDS011;6960;53.560;9.950;2022-12-05T00:02:14;79.83;;;74.10;;
13779;SDS011;6960;53.560;9.950;2022-12-05T00:04:40;78.20;;;73.23;;
13779;SDS011;6960;53.560;9.950;2022-12-05T00:07:06;73.83;;;68.93;;
13779;SDS011;6960;53.560;9.950;2022-12-05T00:09:32;88.40;;;83.00;;
13779;SDS011;6960;53.560;9.950;2022-12-05T00:11:58;79.37;;;74.27;;
13779;SDS011;6960;53.560;9.950;2022-12-05T00:14:24;76.97;;;72.03;;
13779;SDS011;6960;53.560;9.950;2022-12-05T00:16:50;81.13;;;76.17;;
13779;SDS011;6960;53.560;9.950;2022-12-05T00:19:16;78.63;;;73.53;;
13779;SDS011;6960;53.560;9.950;2022-12-05T00:21:42;75.33;;;70.33;;
13779;SDS011;6960;53.560;9.950;2022-12-05T00:24:10;75.27;;;70.47;;
13779;SDS011;6960;53.560;9.950;2022-12-05T00:26:37;87.17;;;82.07;;
13779;SDS011;6960;53.560;9.950;2022-12-05T00:29:03;69.63;;;65.17;;
13779;SDS011;6960;53.560;9.950;2022-12-05T00:31:29;84.00;;;79.10;;
13779;SDS011;6960;53.560;9.950;2022-12-05T00:33:55;119.87;;;113.60;;
13779;SDS011;6960;53.560;9.950;2022-12-05T00:36:24;106.40;;;99.60;;
13779;SDS011;6960;53.560;9.950;2022-12-05T00:38:51;67.93;;;63.60;;
13779;SDS011;6960;53.560;9.950;2022-12-05T00:41:18;69.60;;;65.40;;
13779;SDS011;6960;53.560;9.950;2022-12-05T00:43:44;71.17;;;66.90;;
13779;SDS011;6960;53.560;9.950;2022-12-05T00:46:12;69.60;;;65.20;;
13779;SDS011;6960;53.560;9.950;2022-12-05T00:48:38;64.07;;;60.00;;
13779;SDS011;6960;53.560;9.950;2022-12-05T00:51:05;94.80;;;88.80;;
13779;SDS011;6960;53.560;9.950;2022-12-05T00:53:32;69.53;;;65.23;;
13779;SDS011;6960;53.560;9.950;2022-12-05T00:56:02;70.10;;;65.90;;
13779;SDS011;6960;53.560;9.950;2022-12-05T00:58:29;73.03;;;68.53;;
13779;SDS011;6960;53.560;9.950;2022-12-05T01:00:55;76.47;;;71.90;;
13779;SDS011;6960;53.560;9.950;2022-12-05T01:03:21;74.03;;;69.63;;
13779;SDS011;6960;53.560;9.950;2022-12-05T01:05:47;88.37;;;82.77;;
13779;SDS011;6960;53.560;9.950;2022-12-05T01:08:12;68.17;;;63.97;;
13779;SDS011;6960;53.560;9.950;2022-12-05T01:10:38;69.73;;;65.53;;
13779;SDS011;6960;53.560;9.950;2022-12-05T01:13:04;64.70;;;60.60;;
13779;SDS011;6960;53.560;9.950;2022-12-05T01:15:30;68.90;;;64.47;;
13779;SDS011;6960;53.560;9.950;2022-12-05T01:17:56;71.97;;;67.67;;
13779;SDS011;6960;53.560;9.950;2022-12-05T01:20:22;70.90;;;66.40;;
13779;SDS011;6960;53.560;9.950;2022-12-05T01:22:48;64.57;;;60.57;;
13779;SDS011;6960;53.560;9.950;2022-12-05T01:25:14;68.57;;;64.47;;
13779;SDS011;6960;53.560;9.950;2022-12-05T01:27:40;70.10;;;65.90;;
13779;SDS011;6960;53.560;9.950;2022-12-05T01:30:06;72.67;;;68.40;;
13779;SDS011;6960;53.560;9.950;2022-12-05T01:32:32;65.20;;;61.00;;
13779;SDS011;6960;53.560;9.950;2022-12-05T01:34:58;70.60;;;66.30;;
13779;SDS011;6960;53.560;9.950;2022-12-05T01:37:24;69.83;;;65.73;;
13779;SDS011;6960;53.560;9.950;2022-12-05T01:39:50;72.40;;;68.13;;
13779;SDS011;6960;53.560;9.950;2022-12-05T01:42:16;70.60;;;66.50;;
13779;SDS011;6960;53.560;9.950;2022-12-05T01:47:08;71.53;;;67.27;;
13779;SDS011;6960;53.560;9.950;2022-12-05T01:49:35;67.57;;;63.67;;
13779;SDS011;6960;53.560;9.950;2022-12-05T01:52:03;70.10;;;66.00;;
13779;SDS011;6960;53.560;9.950;2022-12-05T01:54:30;84.30;;;79.70;;
13779;SDS011;6960;53.560;9.950;2022-12-05T01:57:00;70.47;;;66.40;;
13779;SDS011;6960;53.560;9.950;2022-12-05T01:59:27;72.93;;;68.73;;
13779;SDS011;6960;53.560;9.950;2022-12-05T02:01:55;74.23;;;70.23;;
13779;SDS011;6960;53.560;9.950;2022-12-05T02:04:21;70.47;;;66.43;;
13779;SDS011;6960;53.560;9.950;2022-12-05T02:06:47;64.30;;;60.60;;
13779;SDS011;6960;53.560;9.950;2022-12-05T02:09:13;67.10;;;63.00;;
13779;SDS011;6960;53.560;9.950;2022-12-05T02:11:45;70.03;;;66.10;;
13779;SDS011;6960;53.560;9.950;2022-12-05T02:19:30;65.47;;;61.83;;
13779;SDS011;6960;53.560;9.950;2022-12-05T02:24:52;66.13;;;62.33;;
13779;SDS011;6960;53.560;9.950;2022-12-05T02:27:30;65.00;;;61.20;;
13779;SDS011;6960;53.560;9.950;2022-12-05T02:30:06;66.93;;;62.97;;
13779;SDS011;6960;53.560;9.950;2022-12-05T02:32:37;69.70;;;65.77;;
13779;SDS011;6960;53.560;9.950;2022-12-05T02:37:42;66.50;;;62.70;;
13779;SDS011;6960;53.560;9.950;2022-12-05T02:40:17;65.87;;;62.00;;
13779;SDS011;6960;53.560;9.950;2022-12-05T02:42:58;70.57;;;66.57;;
13779;SDS011;6960;53.560;9.950;2022-12-05T02:45:24;66.47;;;62.47;;
13779;SDS011;6960;53.560;9.950;2022-12-05T02:47:52;70.00;;;65.90;;
13779;SDS011;6960;53.560;9.950;2022-12-05T02:50:29;67.43;;;63.40;;
13779;SDS011;6960;53.560;9.950;2022-12-05T02:52:57;68.03;;;64.07;;
13779;SDS011;6960;53.560;9.950;2022-12-05T02:55:23;67.43;;;63.43;;
13779;SDS011;6960;53.560;9.950;2022-12-05T02:57:51;64.63;;;60.63;;
13779;SDS011;6960;53.560;9.950;2022-12-05T03:00:19;65.30;;;61.30;;
13779;SDS011;6960;53.560;9.950;2022-12-05T03:02:46;68.30;;;64.20;;
13779;SDS011;6960;53.560;9.950;2022-12-05T03:05:18;72.10;;;67.97;;
13779;SDS011;6960;53.560;9.950;2022-12-05T03:07:47;62.87;;;58.97;;
13779;SDS011;6960;53.560;9.950;2022-12-05T03:10:13;65.53;;;61.43;;
13779;SDS011;6960;53.560;9.950;2022-12-05T03:12:43;64.70;;;60.70;;
13779;SDS011;6960;53.560;9.950;2022-12-05T03:15:13;63.93;;;60.07;;
13779;SDS011;6960;53.560;9.950;2022-12-05T03:17:42;66.50;;;62.37;;
13779;SDS011;6960;53.560;9.950;2022-12-05T03:20:20;62.87;;;58.87;;
13779;SDS011;6960;53.560;9.950;2022-12-05T03:25:34;65.73;;;61.63;;
13779;SDS011;6960;53.560;9.950;2022-12-05T03:28:09;66.97;;;62.97;;
13779;SDS011;6960;53.560;9.950;2022-12-05T03:30:37;65.03;;;61.03;;
13779;SDS011;6960;53.560;9.950;2022-12-05T03:33:10;72.33;;;68.00;;
13779;SDS011;6960;53.560;9.950;2022-12-05T03:35:42;59.53;;;55.80;;
13779;SDS011;6960;53.560;9.950;2022-12-05T03:38:14;63.17;;;59.30;;
13779;SDS011;6960;53.560;9.950;2022-12-05T03:41:15;61.30;;;57.57;;
13779;SDS011;6960;53.560;9.950;2022-12-05T03:43:39;63.63;;;59.63;;
13779;SDS011;6960;53.560;9.950;2022-12-05T03:46:11;59.17;;;55.37;;
13779;SDS011;6960;53.560;9.950;2022-12-05T03:51:43;61.40;;;57.60;;
13779;SDS011;6960;53.560;9.950;2022-12-05T03:54:13;63.53;;;59.53;;
13779;SDS011;6960;53.560;9.950;2022-12-05T03:56:53;60.30;;;56.60;;
13779;SDS011;6960;53.560;9.950;2022-12-05T03:59:40;60.40;;;56.73;;
13779;SDS011;6960;53.560;9.950;2022-12-05T04:02:10;60.60;;;56.93;;
13779;SDS011;6960;53.560;9.950;2022-12-05T04:04:39;62.47;;;58.40;;
13779;SDS011;6960;53.560;9.950;2022-12-05T04:07:09;60.60;;;56.70;;
13779;SDS011;6960;53.560;9.950;2022-12-05T04:09:39;77.30;;;72.90;;
13779;SDS011;6960;53.560;9.950;2022-12-05T04:12:09;62.77;;;58.83;;
13779;SDS011;6960;53.560;9.950;2022-12-05T04:17:13;64.60;;;60.70;;
13779;SDS011;6960;53.560;9.950;2022-12-05T04:19:55;62.80;;;58.83;;
13779;SDS011;6960;53.560;9.950;2022-12-05T04:22:42;62.53;;;58.57;;
13779;SDS011;6960;53.560;9.950;2022-12-05T04:25:09;62.53;;;58.47;;
13779;SDS011;6960;53.560;9.950;2022-12-05T04:28:04;67.33;;;63.20;;
13779;SDS011;6960;53.560;9.950;2022-12-05T04:30:39;64.50;;;60.30;;
13779;SDS011;6960;53.560;9.950;2022-12-05T04:35:46;62.37;;;58.37;;
13779;SDS011;6960;53.560;9.950;2022-12-05T04:41:05;60.30;;;56.47;;
13779;SDS011;6960;53.560;9.950;2022-12-05T04:43:33;62.47;;;58.50;;
13779;SDS011;6960;53.560;9.950;2022-12-05T04:46:00;62.63;;;58.63;;
13779;SDS011;6960;53.560;9.950;2022-12-05T04:48:28;71.77;;;67.20;;
13779;SDS011;6960;53.560;9.950;2022-12-05T04:50:54;63.53;;;59.43;;
13779;SDS011;6960;53.560;9.950;2022-12-05T04:53:21;61.07;;;57.33;;
13779;SDS011;6960;53.560;9.950;2022-12-05T04:55:49;79.93;;;75.07;;
13779;SDS011;6960;53.560;9.950;2022-12-05T04:58:19;61.40;;;57.50;;
13779;SDS011;6960;53.560;9.950;2022-12-05T05:00:57;59.87;;;55.90;;
13779;SDS011;6960;53.560;9.950;2022-12-05T05:03:26;58.63;;;54.73;;
13779;SDS011;6960;53.560;9.950;2022-12-05T05:05:54;58.97;;;55.17;;
13779;SDS011;6960;53.560;9.950;2022-12-05T05:08:22;62.00;;;58.00;;
13779;SDS011;6960;53.560;9.950;2022-12-05T05:11:01;61.63;;;57.60;;
13779;SDS011;6960;53.560;9.950;2022-12-05T05:13:29;56.67;;;53.00;;
13779;SDS011;6960;53.560;9.950;2022-12-05T05:15:54;58.43;;;54.67;;
13779;SDS011;6960;53.560;9.950;2022-12-05T05:18:20;57.03;;;53.20;;
13779;SDS011;6960;53.560;9.950;2022-12-05T05:20:46;55.90;;;52.30;;
13779;SDS011;6960;53.560;9.950;2022-12-05T05:23:12;56.40;;;52.77;;
13779;SDS011;6960;53.560;9.950;2022-12-05T05:25:38;56.13;;;52.60;;
13779;SDS011;6960;53.560;9.950;2022-12-05T05:28:04;61.37;;;57.20;;
13779;SDS011;6960;53.560;9.950;2022-12-05T05:30:30;62.40;;;58.20;;
13779;SDS011;6960;53.560;9.950;2022-12-05T05:32:57;58.27;;;54.27;;
13779;SDS011;6960;53.560;9.950;2022-12-05T05:35:23;56.07;;;52.27;;
13779;SDS011;6960;53.560;9.950;2022-12-05T05:37:49;59.33;;;55.20;;
13779;SDS011;6960;53.560;9.950;2022-12-05T05:40:15;59.90;;;55.90;;
13779;SDS011;6960;53.560;9.950;2022-12-05T05:42:43;57.00;;;53.00;;
13779;SDS011;6960;53.560;9.950;2022-12-05T05:45:09;57.13;;;53.13;;
13779;SDS011;6960;53.560;9.950;2022-12-05T05:47:35;57.10;;;53.30;;
13779;SDS011;6960;53.560;9.950;2022-12-05T05:50:01;58.83;;;54.60;;
13779;SDS011;6960;53.560;9.950;2022-12-05T05:52:27;56.97;;;52.83;;
13779;SDS011;6960;53.560;9.950;2022-12-05T05:54:53;55.77;;;51.90;;
13779;SDS011;6960;53.560;9.950;2022-12-05T05:57:19;58.47;;;54.47;;
13779;SDS011;6960;53.560;9.950;2022-12-05T05:59:45;58.07;;;53.87;;
13779;SDS011;6960;53.560;9.950;2022-12-05T06:02:11;59.67;;;55.40;;
13779;SDS011;6960;53.560;9.950;2022-12-05T06:04:37;69.87;;;65.07;;
13779;SDS011;6960;53.560;9.950;2022-12-05T06:07:03;62.83;;;58.57;;
13779;SDS011;6960;53.560;9.950;2022-12-05T06:09:29;63.53;;;59.13;;
13779;SDS011;6960;53.560;9.950;2022-12-05T06:11:55;63.13;;;58.70;;
13779;SDS011;6960;53.560;9.950;2022-12-05T06:14:21;69.37;;;64.77;;
13779;SDS011;6960;53.560;9.950;2022-12-05T06:16:47;73.33;;;67.93;;
13779;SDS011;6960;53.560;9.950;2022-12-05T06:19:13;69.70;;;65.00;;
13779;SDS011;6960;53.560;9.950;2022-12-05T06:21:39;93.20;;;87.23;;
13779;SDS011;6960;53.560;9.950;2022-12-05T06:24:05;68.80;;;63.80;;
13779;SDS011;6960;53.560;9.950;2022-12-05T06:26:31;72.60;;;67.73;;
13779;SDS011;6960;53.560;9.950;2022-12-05T06:28:57;70.73;;;65.67;;
13779;SDS011;6960;53.560;9.950;2022-12-05T06:31:23;84.77;;;79.03;;
13779;SDS011;6960;53.560;9.950;2022-12-05T06:33:52;74.07;;;68.93;;
13779;SDS011;6960;53.560;9.950;2022-12-05T06:36:19;74.40;;;68.93;;
13779;SDS011;6960;53.560;9.950;2022-12-05T06:38:45;78.40;;;73.13;;
13779;SDS011;6960;53.560;9.950;2022-12-05T06:41:14;71.70;;;66.60;;
13779;SDS011;6960;53.560;9.950;2022-12-05T06:43:41;69.03;;;63.83;;
13779;SDS011;6960;53.560;9.950;2022-12-05T06:46:08;68.70;;;63.30;;
13779;SDS011;6960;53.560;9.950;2022-12-05T06:48:35;71.00;;;65.60;;
13779;SDS011;6960;53.560;9.950;2022-12-05T06:51:02;73.07;;;67.57;;
13779;SDS011;6960;53.560;9.950;2022-12-05T06:53:28;70.63;;;65.57;;
13779;SDS011;6960;53.560;9.950;2022-12-05T06:55:57;72.63;;;67.33;;
13779;SDS011;6960;53.560;9.950;2022-12-05T06:58:24;64.70;;;59.90;;
13779;SDS011;6960;53.560;9.950;2022-12-05T07:00:50;78.43;;;72.87;;
13779;SDS011;6960;53.560;9.950;2022-12-05T07:03:35;156.33;;;144.07;;
13779;SDS011;6960;53.560;9.950;2022-12-05T07:06:02;88.97;;;82.43;;
13779;SDS011;6960;53.560;9.950;2022-12-05T07:08:28;72.13;;;66.73;;
13779;SDS011;6960;53.560;9.950;2022-12-05T07:10:54;114.13;;;106.83;;
13779;SDS011;6960;53.560;9.950;2022-12-05T07:13:20;74.60;;;68.97;;
13779;SDS011;6960;53.560;9.950;2022-12-05T07:15:47;76.83;;;71.13;;
13779;SDS011;6960;53.560;9.950;2022-12-05T07:18:13;70.20;;;65.10;;
13779;SDS011;6960;53.560;9.950;2022-12-05T07:20:39;74.57;;;68.90;;
13779;SDS011;6960;53.560;9.950;2022-12-05T07:23:05;74.03;;;68.17;;
13779;SDS011;6960;53.560;9.950;2022-12-05T07:25:31;76.73;;;70.70;;
13779;SDS011;6960;53.560;9.950;2022-12-05T07:27:57;79.63;;;73.50;;
13779;SDS011;6960;53.560;9.950;2022-12-05T07:30:23;77.17;;;71.17;;
13779;SDS011;6960;53.560;9.950;2022-12-05T07:32:49;86.63;;;80.13;;
13779;SDS011;6960;53.560;9.950;2022-12-05T07:35:15;253.50;;;237.53;;
13779;SDS011;6960;53.560;9.950;2022-12-05T07:37:41;154.00;;;141.60;;
13779;SDS011;6960;53.560;9.950;2022-12-05T07:40:07;157.97;;;146.93;;
13779;SDS011;6960;53.560;9.950;2022-12-05T07:42:33;85.77;;;78.87;;
13779;SDS011;6960;53.560;9.950;2022-12-05T07:44:59;96.97;;;89.33;;
13779;SDS011;6960;53.560;9.950;2022-12-05T07:47:25;78.70;;;72.77;;
13779;SDS011;6960;53.560;9.950;2022-12-05T07:49:51;71.37;;;65.93;;
13779;SDS011;6960;53.560;9.950;2022-12-05T07:52:17;82.50;;;76.80;;
13779;SDS011;6960;53.560;9.950;2022-12-05T07:54:42;90.03;;;84.13;;
13779;SDS011;6960;53.560;9.950;2022-12-05T07:57:08;150.47;;;138.60;;
13779;SDS011;6960;53.560;9.950;2022-12-05T07:59:34;93.83;;;87.73;;
13779;SDS011;6960;53.560;9.950;2022-12-05T08:02:00;119.93;;;113.13;;
13779;SDS011;6960;53.560;9.950;2022-12-05T08:04:26;182.43;;;171.13;;
13779;SDS011;6960;53.560;9.950;2022-12-05T08:06:52;97.23;;;91.07;;
13779;SDS011;6960;53.560;9.950;2022-12-05T08:09:18;169.83;;;160.23;;
13779;SDS011;6960;53.560;9.950;2022-12-05T08:11:44;172.00;;;161.33;;
13779;SDS011;6960;53.560;9.950;2022-12-05T08:14:10;152.47;;;143.90;;
13779;SDS011;6960;53.560;9.950;2022-12-05T08:16:36;106.53;;;100.33;;
13779;SDS011;6960;53.560;9.950;2022-12-05T08:19:06;105.30;;;98.97;;
13779;SDS011;6960;53.560;9.950;2022-12-05T08:21:33;102.07;;;95.80;;
13779;SDS011;6960;53.560;9.950;2022-12-05T08:23:59;106.87;;;100.67;;
13779;SDS011;6960;53.560;9.950;2022-12-05T08:26:26;112.83;;;106.13;;
13779;SDS011;6960;53.560;9.950;2022-12-05T08:28:53;189.33;;;179.47;;
13779;SDS011;6960;53.560;9.950;2022-12-05T08:31:20;171.57;;;162.47;;
13779;SDS011;6960;53.560;9.950;2022-12-05T08:33:48;264.57;;;240.43;;
13779;SDS011;6960;53.560;9.950;2022-12-05T08:36:14;195.60;;;185.03;;
13779;SDS011;6960;53.560;9.950;2022-12-05T08:38:41;329.00;;;303.83;;
13779;SDS011;6960;53.560;9.950;2022-12-05T08:41:08;257.90;;;245.23;;
13779;SDS011;6960;53.560;9.950;2022-12-05T08:43:35;152.10;;;144.10;;
13779;SDS011;6960;53.560;9.950;2022-12-05T08:46:01;552.37;;;502.43;;
13779;SDS011;6960;53.560;9.950;2022-12-05T08:48:28;141.03;;;133.33;;
13779;SDS011;6960;53.560;9.950;2022-12-05T08:50:54;166.70;;;157.70;;
13779;SDS011;6960;53.560;9.950;2022-12-05T08:53:20;124.43;;;117.37;;
13779;SDS011;6960;53.560;9.950;2022-12-05T08:55:46;132.47;;;125.47;;
13779;SDS011;6960;53.560;9.950;2022-12-05T08:58:13;127.10;;;119.90;;
13779;SDS011;6960;53.560;9.950;2022-12-05T09:00:39;128.33;;;121.50;;
13779;SDS011;6960;53.560;9.950;2022-12-05T09:03:06;127.13;;;120.20;;
13779;SDS011;6960;53.560;9.950;2022-12-05T09:05:32;391.50;;;367.20;;
13779;SDS011;6960;53.560;9.950;2022-12-05T09:07:57;159.53;;;150.03;;
13779;SDS011;6960;53.560;9.950;2022-12-05T09:10:24;133.70;;;126.13;;
13779;SDS011;6960;53.560;9.950;2022-12-05T09:12:50;266.27;;;251.03;;
13779;SDS011;6960;53.560;9.950;2022-12-05T09:15:16;167.37;;;157.67;;
13779;SDS011;6960;53.560;9.950;2022-12-05T09:17:42;114.00;;;106.53;;
13779;SDS011;6960;53.560;9.950;2022-12-05T09:20:09;114.47;;;106.87;;
13779;SDS011;6960;53.560;9.950;2022-12-05T09:22:37;185.93;;;173.43;;
13779;SDS011;6960;53.560;9.950;2022-12-05T09:25:03;332.97;;;311.27;;
13779;SDS011;6960;53.560;9.950;2022-12-05T09:27:29;114.13;;;107.23;;
13779;SDS011;6960;53.560;9.950;2022-12-05T09:29:55;88.60;;;82.80;;
13779;SDS011;6960;53.560;9.950;2022-12-05T09:32:21;223.83;;;209.60;;
13779;SDS011;6960;53.560;9.950;2022-12-05T09:34:47;109.57;;;103.30;;
13779;SDS011;6960;53.560;9.950;2022-12-05T09:37:13;100.67;;;94.63;;
13779;SDS011;6960;53.560;9.950;2022-12-05T09:39:41;95.17;;;89.07;;
13779;SDS011;6960;53.560;9.950;2022-12-05T09:44:57;105.27;;;98.67;;
13779;SDS011;6960;53.560;9.950;2022-12-05T09:55:48;94.47;;;88.80;;
13779;SDS011;6960;53.560;9.950;2022-12-05T10:00:44;70.33;;;65.50;;
13779;SDS011;6960;53.560;9.950;2022-12-05T10:03:18;107.17;;;99.93;;
13779;SDS011;6960;53.560;9.950;2022-12-05T10:08:20;70.30;;;65.67;;
13779;SDS011;6960;53.560;9.950;2022-12-05T10:13:25;90.37;;;84.97;;
13779;SDS011;6960;53.560;9.950;2022-12-05T10:16:04;71.43;;;66.63;;
13779;SDS011;6960;53.560;9.950;2022-12-05T10:18:44;72.10;;;67.30;;
13779;SDS011;6960;53.560;9.950;2022-12-05T10:21:26;126.97;;;120.33;;
13779;SDS011;6960;53.560;9.950;2022-12-05T10:23:56;98.83;;;93.50;;
13779;SDS011;6960;53.560;9.950;2022-12-05T10:26:24;72.13;;;67.63;;
13779;SDS011;6960;53.560;9.950;2022-12-05T10:31:18;66.47;;;62.07;;
13779;SDS011;6960;53.560;9.950;2022-12-05T10:33:46;62.67;;;58.47;;
13779;SDS011;6960;53.560;9.950;2022-12-05T10:36:14;72.13;;;67.53;;
13779;SDS011;6960;53.560;9.950;2022-12-05T10:38:43;79.40;;;74.63;;
13779;SDS011;6960;53.560;9.950;2022-12-05T10:41:11;72.47;;;68.07;;
13779;SDS011;6960;53.560;9.950;2022-12-05T10:43:38;71.87;;;67.27;;
13779;SDS011;6960;53.560;9.950;2022-12-05T10:46:05;74.60;;;70.00;;
13779;SDS011;6960;53.560;9.950;2022-12-05T10:48:34;99.37;;;93.83;;
13779;SDS011;6960;53.560;9.950;2022-12-05T10:51:00;76.23;;;71.43;;
13779;SDS011;6960;53.560;9.950;2022-12-05T10:53:28;75.20;;;70.17;;
13779;SDS011;6960;53.560;9.950;2022-12-05T10:55:56;74.73;;;69.87;;
13779;SDS011;6960;53.560;9.950;2022-12-05T10:58:29;69.53;;;64.77;;
13779;SDS011;6960;53.560;9.950;2022-12-05T11:00:56;70.60;;;65.90;;
13779;SDS011;6960;53.560;9.950;2022-12-05T11:03:29;68.13;;;63.80;;
13779;SDS011;6960;53.560;9.950;2022-12-05T11:05:57;70.73;;;65.97;;
13779;SDS011;6960;53.560;9.950;2022-12-05T11:08:25;69.63;;;65.27;;
13779;SDS011;6960;53.560;9.950;2022-12-05T11:11:02;68.10;;;63.40;;
13779;SDS011;6960;53.560;9.950;2022-12-05T11:13:28;80.40;;;75.27;;
13779;SDS011;6960;53.560;9.950;2022-12-05T11:15:54;80.03;;;75.07;;
13779;SDS011;6960;53.560;9.950;2022-12-05T11:20:49;77.47;;;72.50;;
13779;SDS011;6960;53.560;9.950;2022-12-05T11:23:19;89.20;;;83.60;;
13779;SDS011;6960;53.560;9.950;2022-12-05T11:25:47;79.90;;;74.70;;
13779;SDS011;6960;53.560;9.950;2022-12-05T11:33:27;73.60;;;68.70;;
13779;SDS011;6960;53.560;9.950;2022-12-05T11:35:54;111.13;;;105.23;;
13779;SDS011;6960;53.560;9.950;2022-12-05T11:38:23;131.37;;;124.67;;
13779;SDS011;6960;53.560;9.950;2022-12-05T11:43:26;120.17;;;113.83;;
13779;SDS011;6960;53.560;9.950;2022-12-05T11:46:12;127.00;;;120.63;;
13779;SDS011;6960;53.560;9.950;2022-12-05T11:48:54;135.67;;;128.77;;
13779;SDS011;6960;53.560;9.950;2022-12-05T11:59:39;196.73;;;188.03;;
13779;SDS011;6960;53.560;9.950;2022-12-05T12:02:10;193.30;;;184.53;;
13779;SDS011;6960;53.560;9.950;2022-12-05T12:04:49;194.20;;;185.30;;
13779;SDS011;6960;53.560;9.950;2022-12-05T12:07:21;196.87;;;187.87;;
13779;SDS011;6960;53.560;9.950;2022-12-05T12:09:57;210.77;;;201.23;;
13779;SDS011;6960;53.560;9.950;2022-12-05T12:12:27;203.47;;;194.63;;
13779;SDS011;6960;53.560;9.950;2022-12-05T12:17:33;233.27;;;222.97;;
13779;SDS011;6960;53.560;9.950;2022-12-05T12:25:26;297.63;;;284.33;;
13779;SDS011;6960;53.560;9.950;2022-12-05T12:27:58;296.23;;;282.97;;
13779;SDS011;6960;53.560;9.950;2022-12-05T12:30:54;311.63;;;297.47;;
13779;SDS011;6960;53.560;9.950;2022-12-05T12:36:16;287.90;;;275.23;;
13779;SDS011;6960;53.560;9.950;2022-12-05T12:49:16;344.73;;;329.13;;
13779;SDS011;6960;53.560;9.950;2022-12-05T12:51:52;348.07;;;332.23;;
13779;SDS011;6960;53.560;9.950;2022-12-05T12:54:27;326.87;;;311.93;;
13779;SDS011;6960;53.560;9.950;2022-12-05T12:57:01;322.37;;;307.87;;
13779;SDS011;6960;53.560;9.950;2022-12-05T13:02:12;353.20;;;337.03;;
13779;SDS011;6960;53.560;9.950;2022-12-05T13:04:46;355.80;;;339.83;;
13779;SDS011;6960;53.560;9.950;2022-12-05T13:07:17;341.77;;;326.50;;
13779;SDS011;6960;53.560;9.950;2022-12-05T13:09:49;361.47;;;345.27;;
13779;SDS011;6960;53.560;9.950;2022-12-05T13:12:23;380.53;;;363.50;;
13779;SDS011;6960;53.560;9.950;2022-12-05T13:15:09;388.33;;;370.57;;
13779;SDS011;6960;53.560;9.950;2022-12-05T13:17:35;397.13;;;379.33;;
13779;SDS011;6960;53.560;9.950;2022-12-05T13:20:03;383.50;;;366.13;;
13779;SDS011;6960;53.560;9.950;2022-12-05T13:22:29;408.60;;;389.40;;
13779;SDS011;6960;53.560;9.950;2022-12-05T13:24:55;418.63;;;399.13;;
13779;SDS011;6960;53.560;9.950;2022-12-05T13:27:22;415.27;;;395.87;;
13779;SDS011;6960;53.560;9.950;2022-12-05T13:29:52;434.17;;;413.40;;
13779;SDS011;6960;53.560;9.950;2022-12-05T13:32:32;429.97;;;410.03;;
13779;SDS011;6960;53.560;9.950;2022-12-05T13:38:02;431.53;;;410.73;;
13779;SDS011;6960;53.560;9.950;2022-12-05T13:40:50;469.03;;;446.73;;
13779;SDS011;6960;53.560;9.950;2022-12-05T13:43:40;462.13;;;440.00;;
13779;SDS011;6960;53.560;9.950;2022-12-05T13:46:10;481.27;;;458.67;;
13779;SDS011;6960;53.560;9.950;2022-12-05T13:48:39;488.37;;;465.10;;
13779;SDS011;6960;53.560;9.950;2022-12-05T13:51:07;495.80;;;472.77;;
13779;SDS011;6960;53.560;9.950;2022-12-05T14:06:12;493.73;;;470.10;;
13779;SDS011;6960;53.560;9.950;2022-12-05T14:08:57;474.50;;;451.37;;
13779;SDS011;6960;53.560;9.950;2022-12-05T14:11:23;512.53;;;487.33;;
13779;SDS011;6960;53.560;9.950;2022-12-05T14:13:49;518.70;;;493.37;;
13779;SDS011;6960;53.560;9.950;2022-12-05T14:19:05;538.67;;;512.70;;
13779;SDS011;6960;53.560;9.950;2022-12-05T14:21:36;511.23;;;486.07;;
13779;SDS011;6960;53.560;9.950;2022-12-05T14:24:10;513.73;;;488.93;;
13779;SDS011;6960;53.560;9.950;2022-12-05T14:32:11;532.83;;;507.23;;
13779;SDS011;6960;53.560;9.950;2022-12-05T14:34:48;563.30;;;536.10;;
13779;SDS011;6960;53.560;9.950;2022-12-05T14:39:45;549.63;;;522.87;;
13779;SDS011;6960;53.560;9.950;2022-12-05T14:44:47;540.13;;;513.77;;
13779;SDS011;6960;53.560;9.950;2022-12-05T14:47:21;550.83;;;524.50;;
13779;SDS011;6960;53.560;9.950;2022-12-05T14:50:20;572.63;;;545.17;;
13779;SDS011;6960;53.560;9.950;2022-12-05T14:53:12;558.57;;;531.33;;
13779;SDS011;6960;53.560;9.950;2022-12-05T14:55:31;582.67;;;554.17;;
13779;SDS011;6960;53.560;9.950;2022-12-05T14:58:00;584.83;;;556.53;;
13779;SDS011;6960;53.560;9.950;2022-12-05T15:00:27;572.50;;;543.97;;
13779;SDS011;6960;53.560;9.950;2022-12-05T15:02:53;554.57;;;527.43;;
13779;SDS011;6960;53.560;9.950;2022-12-05T15:05:21;548.50;;;520.93;;
13779;SDS011;6960;53.560;9.950;2022-12-05T15:07:48;589.17;;;560.83;;
13779;SDS011;6960;53.560;9.950;2022-12-05T15:13:23;607.40;;;578.13;;
13779;SDS011;6960;53.560;9.950;2022-12-05T15:15:43;590.10;;;561.20;;
13779;SDS011;6960;53.560;9.950;2022-12-05T15:20:51;609.50;;;579.87;;
13779;SDS011;6960;53.560;9.950;2022-12-05T15:26:04;615.47;;;585.73;;
13779;SDS011;6960;53.560;9.950;2022-12-05T15:28:36;583.27;;;554.37;;
13779;SDS011;6960;53.560;9.950;2022-12-05T15:31:02;592.97;;;564.20;;
13779;SDS011;6960;53.560;9.950;2022-12-05T15:33:28;602.00;;;572.97;;
13779;SDS011;6960;53.560;9.950;2022-12-05T15:35:55;604.67;;;575.00;;
13779;SDS011;6960;53.560;9.950;2022-12-05T15:38:25;591.83;;;562.97;;
13779;SDS011;6960;53.560;9.950;2022-12-05T15:40:54;606.27;;;577.17;;
13779;SDS011;6960;53.560;9.950;2022-12-05T15:43:27;646.77;;;615.53;;
13779;SDS011;6960;53.560;9.950;2022-12-05T15:48:38;650.17;;;619.43;;
13779;SDS011;6960;53.560;9.950;2022-12-05T15:51:04;612.77;;;582.90;;
13779;SDS011;6960;53.560;9.950;2022-12-05T15:53:34;633.93;;;603.37;;
13779;SDS011;6960;53.560;9.950;2022-12-05T15:56:20;624.90;;;594.77;;
13779;SDS011;6960;53.560;9.950;2022-12-05T15:58:48;659.83;;;628.17;;
13779;SDS011;6960;53.560;9.950;2022-12-05T16:01:19;666.27;;;634.77;;
13779;SDS011;6960;53.560;9.950;2022-12-05T16:08:53;658.23;;;626.27;;
13779;SDS011;6960;53.560;9.950;2022-12-05T16:11:20;671.40;;;639.13;;
13779;SDS011;6960;53.560;9.950;2022-12-05T16:13:47;691.03;;;657.87;;
13779;SDS011;6960;53.560;9.950;2022-12-05T16:16:15;668.33;;;635.80;;
13779;SDS011;6960;53.560;9.950;2022-12-05T16:18:47;677.53;;;644.03;;
13779;SDS011;6960;53.560;9.950;2022-12-05T16:21:57;707.23;;;672.77;;
13779;SDS011;6960;53.560;9.950;2022-12-05T16:24:07;691.90;;;657.97;;
13779;SDS011;6960;53.560;9.950;2022-12-05T16:26:38;648.57;;;616.23;;
13779;SDS011;6960;53.560;9.950;2022-12-05T16:29:05;648.27;;;616.20;;
13779;SDS011;6960;53.560;9.950;2022-12-05T16:31:33;645.03;;;612.83;;
13779;SDS011;6960;53.560;9.950;2022-12-05T16:34:04;682.67;;;649.10;;
13779;SDS011;6960;53.560;9.950;2022-12-05T16:36:31;674.37;;;641.10;;
13779;SDS011;6960;53.560;9.950;2022-12-05T16:39:00;674.93;;;641.23;;
13779;SDS011;6960;53.560;9.950;2022-12-05T16:41:33;678.30;;;644.13;;
13779;SDS011;6960;53.560;9.950;2022-12-05T16:43:59;659.50;;;626.53;;
13779;SDS011;6960;53.560;9.950;2022-12-05T16:51:39;657.37;;;624.67;;
13779;SDS011;6960;53.560;9.950;2022-12-05T16:54:06;661.17;;;628.47;;
13779;SDS011;6960;53.560;9.950;2022-12-05T16:56:32;648.60;;;616.37;;